createdAt,value
2022-10-19T00:00:56.969Z,10.80
2022-10-19T00:01:57.027Z,13.50
2022-10-19T00:02:56.927Z,21.30
2022-10-19T00:03:56.942Z,42.00
2022-10-19T00:04:56.893Z,28.00
2022-10-19T00:05:56.898Z,14.80
2022-10-19T00:06:57.046Z,34.80
2022-10-19T00:07:56.886Z,12.50
2022-10-19T00:08:57.915Z,20.10
2022-10-19T00:09:56.882Z,20.90
2022-10-19T00:10:56.875Z,21.10
2022-10-19T00:11:56.878Z,24.10
2022-10-19T00:12:56.921Z,27.90
2022-10-19T00:13:56.838Z,25.10
2022-10-19T00:14:56.859Z,28.30
2022-10-19T00:15:56.794Z,17.60
2022-10-19T00:16:56.777Z,15.60
2022-10-19T00:17:56.775Z,16.50
2022-10-19T00:18:56.807Z,48.00
2022-10-19T00:19:56.814Z,40.80
2022-10-19T00:20:56.710Z,28.20
2022-10-19T00:21:56.799Z,23.50
2022-10-19T00:22:56.710Z,19.00
2022-10-19T00:23:56.836Z,16.20
2022-10-19T00:24:57.741Z,21.80
2022-10-19T00:25:56.662Z,25.40
2022-10-19T00:26:56.667Z,13.10
2022-10-19T00:27:56.723Z,22.80
2022-10-19T00:28:56.923Z,25.00
2022-10-19T00:29:56.622Z,13.70
2022-10-19T00:30:56.706Z,18.00
2022-10-19T00:31:57.687Z,13.30
2022-10-19T00:32:56.667Z,22.40
2022-10-19T00:33:56.574Z,14.20
2022-10-19T00:34:57.139Z,14.80
2022-10-19T00:35:56.695Z,26.00
2022-10-19T00:36:56.880Z,13.40
2022-10-19T00:37:56.667Z,11.60
2022-10-19T00:38:56.968Z,8.30
2022-10-19T00:39:56.792Z,8.90
2022-10-19T00:40:56.728Z,14.30
2022-10-19T00:41:56.746Z,43.10
2022-10-19T00:42:56.570Z,35.20
2022-10-19T00:43:56.667Z,45.20
2022-10-19T00:44:56.563Z,59.00
2022-10-19T00:45:56.570Z,38.90
2022-10-19T00:46:56.476Z,41.20
2022-10-19T00:47:56.685Z,227.00
2022-10-19T00:48:56.559Z,114.90
2022-10-19T00:49:56.484Z,27.20
2022-10-19T00:50:56.471Z,51.10
2022-10-19T00:51:56.399Z,147.10
2022-10-19T00:52:56.595Z,74.80
2022-10-19T00:53:56.403Z,39.50
2022-10-19T00:54:56.544Z,51.80
2022-10-19T00:55:56.608Z,70.70
2022-10-19T00:56:56.601Z,69.70
2022-10-19T00:57:56.323Z,97.80
2022-10-19T00:58:56.412Z,169.40
2022-10-19T00:59:56.608Z,111.70
2022-10-19T01:00:57.189Z,193.30
2022-10-19T01:01:56.391Z,151.50
2022-10-19T01:02:56.376Z,88.10
2022-10-19T01:03:57.452Z,79.80
2022-10-19T01:04:56.441Z,64.10
2022-10-19T01:05:56.272Z,108.60
2022-10-19T01:06:56.298Z,181.90
2022-10-19T01:07:56.232Z,217.70
2022-10-19T01:08:56.272Z,381.10
2022-10-19T01:09:56.229Z,65.60
2022-10-19T01:10:56.340Z,105.50
2022-10-19T01:11:56.201Z,429.50
2022-10-19T01:12:56.284Z,231.80
2022-10-19T01:13:56.214Z,647.20
2022-10-19T01:14:56.176Z,414.10
2022-10-19T01:15:56.156Z,180.80
2022-10-19T01:16:56.325Z,343.30
2022-10-19T01:17:56.085Z,345.30
2022-10-19T01:18:56.970Z,317.30
2022-10-19T01:19:56.213Z,514.80
2022-10-19T01:20:56.148Z,83.80
2022-10-19T01:21:56.150Z,498.60
2022-10-19T01:22:56.153Z,101.60
2022-10-19T01:23:56.204Z,250.20
2022-10-19T01:24:56.060Z,174.60
2022-10-19T01:25:56.172Z,224.90
2022-10-19T01:26:56.000Z,355.70
2022-10-19T01:27:56.017Z,145.30
2022-10-19T01:28:56.082Z,425.10
2022-10-19T01:29:56.050Z,162.50
2022-10-19T01:30:56.526Z,282.50
2022-10-19T01:31:56.101Z,227.70
2022-10-19T01:32:56.057Z,190.90
2022-10-19T01:34:55.946Z,129.80
2022-10-19T01:35:56.595Z,231.50
2022-10-19T01:36:55.938Z,123.30
2022-10-19T01:37:55.961Z,149.90
2022-10-19T01:38:55.952Z,169.00
2022-10-19T01:39:55.937Z,105.30
2022-10-19T01:40:55.982Z,213.20
2022-10-19T01:41:55.830Z,159.40
2022-10-19T01:43:55.822Z,105.60
2022-10-19T01:44:55.838Z,79.10
2022-10-19T01:45:55.798Z,135.60
2022-10-19T01:46:55.810Z,499.40
2022-10-19T01:47:56.770Z,163.90
2022-10-19T01:48:55.746Z,83.70
2022-10-19T01:49:55.810Z,171.50
2022-10-19T01:50:55.705Z,112.20
2022-10-19T01:51:56.050Z,283.50
2022-10-19T01:52:55.739Z,382.00
2022-10-19T01:53:55.760Z,229.60
2022-10-19T01:54:55.702Z,370.30
2022-10-19T01:55:55.667Z,250.60
2022-10-19T01:56:55.675Z,140.70
2022-10-19T01:57:55.684Z,212.00
2022-10-19T01:58:55.679Z,163.20
2022-10-19T01:59:55.611Z,269.60
2022-10-19T02:00:55.748Z,555.00
2022-10-19T02:01:55.680Z,142.40
2022-10-19T02:02:55.616Z,177.60
2022-10-19T02:03:55.639Z,375.90
2022-10-19T02:04:55.847Z,349.50
2022-10-19T02:05:55.780Z,480.50
2022-10-19T02:06:55.681Z,223.50
2022-10-19T02:07:55.639Z,409.60
2022-10-19T02:08:55.675Z,456.90
2022-10-19T02:09:55.707Z,482.70
2022-10-19T02:10:55.615Z,406.40
2022-10-19T02:11:57.052Z,342.30
2022-10-19T02:12:55.591Z,329.30
2022-10-19T02:13:56.007Z,331.00
2022-10-19T02:14:55.452Z,196.30
2022-10-19T02:15:55.563Z,146.70
2022-10-19T02:16:55.544Z,246.50
2022-10-19T02:17:55.412Z,252.30
2022-10-19T02:18:55.422Z,180.90
2022-10-19T02:19:55.501Z,260.80
2022-10-19T02:20:55.436Z,238.30
2022-10-19T02:21:55.380Z,133.40
2022-10-19T02:22:55.448Z,312.50
2022-10-19T02:23:55.480Z,215.00
2022-10-19T02:24:55.451Z,253.20
2022-10-19T02:25:55.352Z,242.30
2022-10-19T02:26:55.363Z,220.90
2022-10-19T02:27:56.136Z,163.10
2022-10-19T02:28:55.317Z,121.90
2022-10-19T02:29:55.594Z,154.00
2022-10-19T02:30:55.325Z,345.00
2022-10-19T02:31:56.508Z,359.30
2022-10-19T02:32:55.337Z,170.30
2022-10-19T02:33:55.274Z,319.60
2022-10-19T02:34:55.260Z,134.00
2022-10-19T02:35:55.525Z,164.70
2022-10-19T02:36:55.482Z,313.60
2022-10-19T02:37:55.291Z,202.60
2022-10-19T02:38:55.231Z,231.50
2022-10-19T02:39:55.265Z,195.10
2022-10-19T02:40:55.360Z,223.30
2022-10-19T02:41:55.149Z,250.70
2022-10-19T02:42:55.289Z,225.20
2022-10-19T02:43:55.281Z,208.00
2022-10-19T02:44:55.296Z,87.80
2022-10-19T02:45:55.299Z,203.90
2022-10-19T02:46:55.321Z,136.90
2022-10-19T02:47:55.109Z,96.70
2022-10-19T02:48:55.211Z,239.90
2022-10-19T02:49:55.093Z,199.00
2022-10-19T02:50:55.229Z,161.50
2022-10-19T02:51:55.117Z,134.10
2022-10-19T02:52:55.145Z,134.20
2022-10-19T02:53:55.153Z,256.90
2022-10-19T02:54:55.639Z,183.30
2022-10-19T02:55:55.021Z,270.20
2022-10-19T02:56:55.154Z,268.30
2022-10-19T02:57:55.021Z,216.40
2022-10-19T02:58:55.161Z,263.20
2022-10-19T02:59:55.133Z,286.80
2022-10-19T03:00:55.681Z,149.20
2022-10-19T03:01:55.021Z,162.50
2022-10-19T03:02:54.974Z,261.80
2022-10-19T03:03:55.049Z,297.90
2022-10-19T03:04:55.014Z,306.40
2022-10-19T03:05:54.882Z,109.70
2022-10-19T03:06:54.906Z,147.20
2022-10-19T03:07:54.886Z,123.50
2022-10-19T03:08:54.926Z,76.40
2022-10-19T03:09:54.978Z,126.50
2022-10-19T03:10:55.067Z,145.10
2022-10-19T03:11:54.962Z,126.40
2022-10-19T03:12:54.943Z,98.50
2022-10-19T03:13:54.897Z,88.10
2022-10-19T03:14:54.831Z,116.80
2022-10-19T03:15:54.812Z,56.90
2022-10-19T03:16:54.843Z,120.30
2022-10-19T03:17:54.764Z,61.90
2022-10-19T03:18:54.975Z,85.90
2022-10-19T03:19:54.747Z,69.40
2022-10-19T03:20:57.275Z,85.00
2022-10-19T03:21:54.687Z,75.70
2022-10-19T03:22:55.118Z,82.40
2022-10-19T03:23:54.719Z,81.60
2022-10-19T03:24:54.835Z,73.20
2022-10-19T03:25:55.965Z,50.30
2022-10-19T03:26:54.795Z,65.60
2022-10-19T03:27:54.807Z,57.20
2022-10-19T03:28:54.931Z,47.20
2022-10-19T03:29:54.692Z,50.80
2022-10-19T03:30:54.660Z,51.10
2022-10-19T03:31:56.999Z,57.40
2022-10-19T03:32:55.048Z,29.10
2022-10-19T03:33:54.563Z,42.10
2022-10-19T03:34:54.647Z,77.10
2022-10-19T03:35:54.596Z,90.90
2022-10-19T03:36:54.587Z,94.70
2022-10-19T03:37:54.627Z,78.40
2022-10-19T03:38:54.525Z,62.30
2022-10-19T03:39:54.525Z,91.20
2022-10-19T03:40:54.502Z,88.90
2022-10-19T03:41:54.507Z,81.20
2022-10-19T03:42:54.491Z,139.60
2022-10-19T03:43:54.704Z,99.50
2022-10-19T03:44:54.492Z,62.10
2022-10-19T03:45:54.740Z,48.10
2022-10-19T03:46:54.567Z,39.10
2022-10-19T03:47:55.028Z,53.00
2022-10-19T03:48:55.129Z,37.80
2022-10-19T03:49:54.960Z,43.80
2022-10-19T03:50:54.416Z,33.90
2022-10-19T03:51:54.665Z,38.70
2022-10-19T03:52:55.549Z,40.90
2022-10-19T03:53:55.152Z,37.60
2022-10-19T03:54:54.888Z,85.00
2022-10-19T03:55:54.358Z,50.20
2022-10-19T03:56:54.332Z,64.40
2022-10-19T03:57:54.377Z,159.50
2022-10-19T03:58:54.320Z,159.90
2022-10-19T03:59:54.316Z,169.20
2022-10-19T04:00:54.362Z,211.30
2022-10-19T04:01:54.277Z,113.60
2022-10-19T04:02:54.280Z,116.20
2022-10-19T04:03:54.266Z,45.30
2022-10-19T04:04:54.277Z,64.50
2022-10-19T04:05:54.250Z,268.80
2022-10-19T04:06:54.754Z,109.20
2022-10-19T04:07:54.524Z,80.00
2022-10-19T04:08:54.257Z,46.20
2022-10-19T04:09:54.242Z,98.50
2022-10-19T04:10:54.201Z,159.20
2022-10-19T04:11:54.218Z,64.00
2022-10-19T04:12:54.220Z,71.10
2022-10-19T04:13:54.166Z,60.40
2022-10-19T04:14:57.394Z,131.80
2022-10-19T04:15:55.146Z,95.40
2022-10-19T04:16:54.130Z,105.20
2022-10-19T04:17:54.166Z,167.00
2022-10-19T04:18:54.126Z,55.30
2022-10-19T04:19:54.182Z,117.00
2022-10-19T04:20:54.585Z,59.00
2022-10-19T04:21:54.059Z,37.90
2022-10-19T04:22:54.090Z,38.60
2022-10-19T04:23:54.121Z,47.30
2022-10-19T04:24:54.022Z,78.10
2022-10-19T04:25:54.026Z,58.30
2022-10-19T04:26:54.954Z,73.70
2022-10-19T04:27:54.034Z,68.40
2022-10-19T04:28:54.070Z,85.00
2022-10-19T04:29:53.984Z,71.00
2022-10-19T04:30:53.961Z,61.00
2022-10-19T04:31:53.986Z,114.80
2022-10-19T04:32:53.958Z,86.60
2022-10-19T04:33:53.965Z,102.10
2022-10-19T04:34:53.913Z,93.20
2022-10-19T04:35:53.948Z,84.10
2022-10-19T04:36:53.944Z,65.00
2022-10-19T04:37:53.925Z,97.30
2022-10-19T04:38:53.892Z,100.90
2022-10-19T04:39:53.944Z,140.60
2022-10-19T04:40:53.866Z,57.70
2022-10-19T04:41:53.828Z,98.50
2022-10-19T04:42:53.815Z,146.50
2022-10-19T04:43:53.828Z,144.60
2022-10-19T04:44:54.062Z,79.00
2022-10-19T04:45:53.811Z,84.60
2022-10-19T04:46:53.841Z,63.70
2022-10-19T04:47:53.796Z,91.20
2022-10-19T04:48:53.813Z,65.20
2022-10-19T04:49:53.772Z,72.40
2022-10-19T04:50:53.843Z,61.40
2022-10-19T04:51:53.792Z,59.90
2022-10-19T04:52:53.954Z,72.70
2022-10-19T04:53:56.920Z,73.80
2022-10-19T04:54:54.815Z,102.20
2022-10-19T04:55:53.694Z,90.30
2022-10-19T04:56:53.737Z,43.50
2022-10-19T04:57:53.675Z,123.30
2022-10-19T04:58:53.682Z,48.20
2022-10-19T04:59:53.676Z,68.40
2022-10-19T05:00:53.699Z,40.00
2022-10-19T05:01:53.655Z,65.30
2022-10-19T05:02:53.661Z,70.40
2022-10-19T05:03:53.692Z,62.00
2022-10-19T05:04:54.295Z,127.40
2022-10-19T05:05:53.597Z,90.30
2022-10-19T05:06:53.603Z,124.10
2022-10-19T05:07:53.572Z,89.30
2022-10-19T05:08:53.575Z,103.90
2022-10-19T05:09:53.568Z,152.00
2022-10-19T05:10:53.572Z,154.70
2022-10-19T05:11:53.608Z,116.00
2022-10-19T05:12:53.536Z,123.50
2022-10-19T05:13:53.474Z,111.30
2022-10-19T05:14:53.587Z,104.80
2022-10-19T05:15:53.470Z,107.80
2022-10-19T05:16:53.456Z,93.60
2022-10-19T05:17:54.438Z,87.70
2022-10-19T05:18:53.456Z,118.30
2022-10-19T05:19:53.440Z,122.10
2022-10-19T05:20:53.407Z,69.70
2022-10-19T05:21:53.385Z,93.80
2022-10-19T05:22:53.420Z,136.70
2022-10-19T05:23:53.376Z,209.80
2022-10-19T05:24:55.938Z,171.80
2022-10-19T05:25:53.404Z,139.10
2022-10-19T05:26:53.340Z,173.30
2022-10-19T05:27:53.353Z,133.30
2022-10-19T05:28:53.337Z,112.20
2022-10-19T05:29:53.293Z,100.60
2022-10-19T05:30:53.313Z,92.20
2022-10-19T05:31:53.281Z,108.80
2022-10-19T05:32:53.282Z,81.30
2022-10-19T05:33:53.362Z,62.30
2022-10-19T05:34:53.246Z,50.20
2022-10-19T05:35:53.261Z,178.00
2022-10-19T05:36:53.585Z,114.50
2022-10-19T05:37:53.190Z,188.60
2022-10-19T05:38:53.214Z,169.20
2022-10-19T05:39:53.181Z,238.00
2022-10-19T05:40:53.772Z,197.40
2022-10-19T05:41:53.232Z,126.50
2022-10-19T05:42:53.170Z,168.20
2022-10-19T05:43:53.156Z,152.70
2022-10-19T05:44:53.142Z,235.10
2022-10-19T05:45:53.175Z,490.10
2022-10-19T05:46:53.075Z,370.70
2022-10-19T05:47:53.221Z,240.20
2022-10-19T05:48:53.069Z,303.60
2022-10-19T05:49:54.095Z,435.60
2022-10-19T05:50:53.102Z,312.40
2022-10-19T05:51:54.066Z,325.40
2022-10-19T05:52:54.025Z,438.90
2022-10-19T05:53:53.047Z,290.90
2022-10-19T05:54:53.021Z,383.40
2022-10-19T05:55:53.017Z,347.20
2022-10-19T05:56:53.018Z,580.10
2022-10-19T05:57:53.586Z,393.90
2022-10-19T05:58:53.002Z,171.60
2022-10-19T05:59:52.955Z,169.70
2022-10-19T06:00:53.006Z,299.90
2022-10-19T06:01:53.016Z,267.30
2022-10-19T06:02:58.182Z,541.60
2022-10-19T06:03:54.984Z,410.10
2022-10-19T06:04:52.960Z,430.40
2022-10-19T06:05:52.876Z,155.60
2022-10-19T06:06:52.919Z,231.40
2022-10-19T06:07:52.904Z,369.10
2022-10-19T06:08:52.877Z,296.60
2022-10-19T06:09:53.548Z,419.80
2022-10-19T06:10:52.877Z,319.00
2022-10-19T06:11:52.834Z,481.20
2022-10-19T06:12:52.792Z,173.50
2022-10-19T06:13:52.862Z,344.80
2022-10-19T06:14:52.820Z,131.60
2022-10-19T06:15:52.785Z,224.50
2022-10-19T06:16:52.805Z,287.40
2022-10-19T06:17:52.740Z,196.70
2022-10-19T06:18:52.722Z,346.60
2022-10-19T06:19:52.740Z,228.00
2022-10-19T06:20:52.736Z,128.60
2022-10-19T06:21:52.714Z,153.00
2022-10-19T06:22:52.676Z,201.20
2022-10-19T06:23:52.693Z,101.70
2022-10-19T06:24:52.700Z,143.10
2022-10-19T06:25:52.664Z,86.10
2022-10-19T06:26:52.699Z,50.70
2022-10-19T06:27:52.663Z,315.60
2022-10-19T06:28:52.666Z,211.80
2022-10-19T06:29:52.593Z,170.50
2022-10-19T06:30:52.657Z,124.90
2022-10-19T06:31:52.629Z,137.20
2022-10-19T06:32:52.680Z,173.50
2022-10-19T06:33:54.835Z,123.30
2022-10-19T06:34:56.455Z,94.30
2022-10-19T06:35:53.619Z,143.20
2022-10-19T06:36:52.560Z,162.20
2022-10-19T06:37:52.547Z,113.50
2022-10-19T06:38:52.531Z,65.00
2022-10-19T06:39:52.572Z,99.10
2022-10-19T06:40:52.638Z,102.30
2022-10-19T06:41:52.527Z,72.70
2022-10-19T06:42:52.471Z,150.70
2022-10-19T06:43:52.457Z,257.70
2022-10-19T06:44:52.478Z,384.60
2022-10-19T06:45:52.463Z,158.70
2022-10-19T06:46:52.474Z,135.20
2022-10-19T06:47:52.435Z,161.90
2022-10-19T06:48:52.396Z,223.30
2022-10-19T06:49:52.419Z,168.70
2022-10-19T06:50:52.437Z,76.80
2022-10-19T06:51:52.386Z,99.70
2022-10-19T06:52:52.394Z,125.30
2022-10-19T06:53:56.509Z,106.20
2022-10-19T06:54:52.357Z,109.30
2022-10-19T06:55:52.340Z,87.60
2022-10-19T06:56:52.338Z,108.50
2022-10-19T06:57:52.304Z,55.40
2022-10-19T06:58:53.014Z,80.40
2022-10-19T06:59:53.034Z,124.90
2022-10-19T07:00:52.291Z,147.60
2022-10-19T07:01:52.336Z,85.80
2022-10-19T07:02:52.275Z,77.40
2022-10-19T07:03:52.250Z,165.30
2022-10-19T07:04:52.275Z,82.80
2022-10-19T07:05:52.232Z,38.50
2022-10-19T07:06:52.215Z,39.80
2022-10-19T07:07:52.270Z,49.50
2022-10-19T07:08:52.761Z,57.90
2022-10-19T07:09:52.172Z,40.60
2022-10-19T07:10:52.168Z,42.30
2022-10-19T07:11:52.220Z,60.40
2022-10-19T07:12:52.167Z,58.20
2022-10-19T07:13:52.167Z,60.80
2022-10-19T07:14:52.100Z,58.60
2022-10-19T07:15:52.123Z,45.80
2022-10-19T07:16:52.093Z,53.50
2022-10-19T07:17:52.094Z,47.40
2022-10-19T07:18:52.083Z,48.00
2022-10-19T07:19:52.065Z,45.00
2022-10-19T07:20:52.072Z,51.60
2022-10-19T07:21:52.085Z,71.50
2022-10-19T07:22:52.044Z,76.60
2022-10-19T07:23:52.017Z,62.10
2022-10-19T07:24:52.001Z,56.60
2022-10-19T07:25:52.033Z,49.50
2022-10-19T07:26:51.984Z,44.60
2022-10-19T07:27:51.997Z,32.00
2022-10-19T07:28:51.995Z,42.20
2022-10-19T07:29:51.960Z,51.30
2022-10-19T07:30:51.916Z,106.50
2022-10-19T07:31:51.915Z,95.10
2022-10-19T07:32:51.960Z,66.00
2022-10-19T07:33:52.339Z,46.50
2022-10-19T07:34:53.320Z,80.20
2022-10-19T07:35:52.620Z,50.10
2022-10-19T07:36:51.868Z,56.10
2022-10-19T07:37:53.706Z,37.60
2022-10-19T07:38:53.354Z,57.30
2022-10-19T07:39:52.280Z,41.70
2022-10-19T07:40:52.183Z,40.20
2022-10-19T07:41:52.470Z,33.30
2022-10-19T07:42:52.604Z,66.00
2022-10-19T07:43:52.830Z,71.70
2022-10-19T07:44:52.492Z,68.20
2022-10-19T07:45:54.248Z,45.20
2022-10-19T07:46:51.779Z,58.70
2022-10-19T07:47:53.318Z,58.70
2022-10-19T07:48:52.070Z,61.60
2022-10-19T07:49:53.101Z,42.50
2022-10-19T07:50:52.730Z,47.80
2022-10-19T07:51:51.893Z,39.00
2022-10-19T07:52:51.685Z,55.10
2022-10-19T07:53:51.724Z,61.80
2022-10-19T07:54:52.003Z,48.90
2022-10-19T07:55:51.651Z,48.60
2022-10-19T07:56:51.652Z,44.10
2022-10-19T07:57:51.636Z,41.40
2022-10-19T07:58:51.632Z,39.30
2022-10-19T07:59:51.647Z,42.70
2022-10-19T08:00:51.610Z,44.60
2022-10-19T08:01:51.685Z,62.40
2022-10-19T08:03:00.145Z,48.10
2022-10-19T08:05:01.211Z,46.50
2022-10-19T08:05:53.574Z,80.00
2022-10-19T08:06:51.531Z,54.40
2022-10-19T08:07:51.541Z,51.40
2022-10-19T08:08:51.560Z,43.20
2022-10-19T08:09:53.699Z,39.70
2022-10-19T08:10:52.515Z,45.20
2022-10-19T08:11:51.470Z,47.20
2022-10-19T08:12:52.002Z,46.70
2022-10-19T08:13:51.466Z,41.00
2022-10-19T08:14:51.444Z,42.60
2022-10-19T08:15:51.436Z,45.90
2022-10-19T08:16:51.441Z,40.40
2022-10-19T08:17:51.431Z,45.10
2022-10-19T08:18:51.388Z,40.80
2022-10-19T08:19:51.379Z,44.40
2022-10-19T08:20:51.432Z,43.10
2022-10-19T08:21:51.445Z,41.60
2022-10-19T08:22:55.088Z,38.20
2022-10-19T08:23:53.392Z,35.10
2022-10-19T08:24:51.364Z,40.00
2022-10-19T08:25:51.331Z,38.10
2022-10-19T08:26:51.434Z,36.90
2022-10-19T08:27:51.304Z,33.50
2022-10-19T08:28:51.305Z,38.50
2022-10-19T08:29:51.348Z,33.40
2022-10-19T08:30:51.276Z,36.10
2022-10-19T08:31:51.279Z,41.70
2022-10-19T08:32:51.244Z,38.30
2022-10-19T08:33:51.228Z,36.30
2022-10-19T08:34:51.252Z,44.50
2022-10-19T08:35:51.244Z,38.20
2022-10-19T08:36:51.229Z,38.50
2022-10-19T08:37:51.625Z,35.00
2022-10-19T08:38:51.184Z,41.70
2022-10-19T08:39:51.208Z,38.90
2022-10-19T08:40:51.165Z,34.20
2022-10-19T08:41:51.196Z,32.10
2022-10-19T08:42:51.151Z,36.30
2022-10-19T08:43:51.137Z,36.10
2022-10-19T08:44:51.142Z,37.70
2022-10-19T08:45:51.854Z,33.80
2022-10-19T08:46:51.088Z,36.30
2022-10-19T08:47:51.105Z,31.50
2022-10-19T08:48:51.914Z,32.10
2022-10-19T08:49:51.082Z,36.30
2022-10-19T08:50:51.065Z,43.80
2022-10-19T08:51:51.217Z,38.00
2022-10-19T08:52:51.141Z,39.30
2022-10-19T08:53:51.054Z,39.00
2022-10-19T08:54:51.085Z,39.10
2022-10-19T08:55:51.005Z,37.20
2022-10-19T08:56:52.099Z,39.10
2022-10-19T08:57:51.997Z,39.70
2022-10-19T08:58:50.954Z,34.90
2022-10-19T08:59:51.007Z,33.80
2022-10-19T09:00:50.950Z,31.80
2022-10-19T09:01:50.933Z,35.10
2022-10-19T09:02:50.958Z,32.40
2022-10-19T09:03:55.342Z,32.20
2022-10-19T09:04:51.950Z,32.60
2022-10-19T09:05:51.016Z,34.00
2022-10-19T09:06:50.918Z,38.50
2022-10-19T09:07:50.885Z,40.90
2022-10-19T09:08:50.902Z,39.20
2022-10-19T09:09:51.361Z,40.00
2022-10-19T09:10:50.817Z,45.30
2022-10-19T09:11:50.823Z,42.50
2022-10-19T09:12:53.929Z,43.60
2022-10-19T09:14:04.614Z,53.80
2022-10-19T09:14:54.487Z,50.80
2022-10-19T09:15:50.800Z,49.00
2022-10-19T09:16:50.769Z,50.80
2022-10-19T09:17:50.750Z,47.70
2022-10-19T09:18:50.857Z,46.00
2022-10-19T09:19:50.725Z,48.60
2022-10-19T09:20:50.743Z,52.30
2022-10-19T09:21:50.737Z,54.10
2022-10-19T09:22:50.708Z,46.10
2022-10-19T09:23:50.698Z,52.70
2022-10-19T09:24:50.911Z,55.80
2022-10-19T09:25:51.110Z,54.10
2022-10-19T09:26:50.655Z,43.70
2022-10-19T09:27:50.732Z,48.40
2022-10-19T09:28:50.722Z,45.60
2022-10-19T09:29:50.650Z,45.10
2022-10-19T09:30:50.683Z,48.10
2022-10-19T09:31:50.660Z,42.70
2022-10-19T09:32:50.631Z,45.10
2022-10-19T09:33:50.602Z,47.10
2022-10-19T09:34:51.345Z,48.40
2022-10-19T09:35:50.588Z,44.80
2022-10-19T09:36:51.172Z,46.40
2022-10-19T09:37:50.711Z,48.80
2022-10-19T09:38:50.662Z,45.10
2022-10-19T09:39:54.057Z,47.00
2022-10-19T09:40:50.591Z,44.30
2022-10-19T09:41:50.507Z,42.00
2022-10-19T09:42:50.851Z,45.80
2022-10-19T09:43:50.568Z,43.00
2022-10-19T09:44:50.740Z,51.00
2022-10-19T09:45:50.699Z,48.30
2022-10-19T09:46:50.589Z,45.10
2022-10-19T09:47:50.469Z,42.50
2022-10-19T09:48:50.829Z,44.70
2022-10-19T09:49:50.708Z,39.50
2022-10-19T09:50:50.423Z,47.70
2022-10-19T09:51:50.429Z,49.40
2022-10-19T09:52:50.388Z,41.70
2022-10-19T09:53:50.374Z,41.10
2022-10-19T09:54:50.379Z,47.80
2022-10-19T09:55:50.972Z,42.40
2022-10-19T09:56:50.354Z,43.70
2022-10-19T09:57:50.343Z,39.30
2022-10-19T09:58:50.348Z,42.60
2022-10-19T09:59:50.804Z,40.70
2022-10-19T10:00:50.372Z,42.30
2022-10-19T10:01:50.703Z,40.70
2022-10-19T10:02:51.417Z,41.70
2022-10-19T10:03:53.809Z,40.10
2022-10-19T10:04:50.380Z,34.90
2022-10-19T10:05:51.491Z,36.20
2022-10-19T10:06:50.285Z,40.70
2022-10-19T10:07:50.370Z,40.90
2022-10-19T10:08:50.327Z,34.80
2022-10-19T10:09:50.326Z,31.80
2022-10-19T10:10:50.258Z,31.50
2022-10-19T10:11:50.268Z,26.20
2022-10-19T10:12:50.237Z,33.30
2022-10-19T10:13:51.062Z,25.70
2022-10-19T10:14:50.170Z,26.70
2022-10-19T10:15:50.171Z,27.20
2022-10-19T10:16:50.155Z,31.80
2022-10-19T10:17:50.134Z,25.90
2022-10-19T10:18:50.113Z,24.40
2022-10-19T10:19:50.194Z,25.40
2022-10-19T10:20:50.154Z,23.00
2022-10-19T10:21:50.131Z,19.20
2022-10-19T10:22:50.091Z,16.10
2022-10-19T10:23:50.098Z,21.10
2022-10-19T10:24:50.037Z,16.40
2022-10-19T10:25:50.148Z,16.80
2022-10-19T10:26:50.059Z,13.30
2022-10-19T10:27:50.167Z,12.00
2022-10-19T10:28:50.040Z,16.20
2022-10-19T10:29:50.083Z,17.10
2022-10-19T10:30:49.998Z,13.10
2022-10-19T10:31:50.070Z,19.60
2022-10-19T10:32:50.071Z,14.70
2022-10-19T10:33:50.169Z,16.60
2022-10-19T10:34:52.884Z,14.60
2022-10-19T10:35:51.935Z,15.20
2022-10-19T10:36:49.931Z,14.40
2022-10-19T10:37:50.030Z,14.00
2022-10-19T10:38:50.069Z,16.40
2022-10-19T10:39:49.903Z,12.70
2022-10-19T10:40:49.919Z,15.30
2022-10-19T10:41:49.878Z,15.60
2022-10-19T10:42:49.874Z,15.00
2022-10-19T10:44:49.848Z,15.50
2022-10-19T10:45:49.834Z,14.20
2022-10-19T10:46:49.847Z,12.70
2022-10-19T10:47:49.826Z,15.50
2022-10-19T10:48:52.705Z,14.70
2022-10-19T10:49:49.855Z,12.10
2022-10-19T10:50:49.818Z,13.20
2022-10-19T10:51:52.891Z,11.40
2022-10-19T10:52:49.804Z,10.90
2022-10-19T10:53:49.897Z,10.60
2022-10-19T10:54:50.038Z,9.40
2022-10-19T10:55:49.829Z,10.30
2022-10-19T10:56:49.744Z,10.30
2022-10-19T10:57:49.810Z,8.90
2022-10-19T10:58:50.229Z,6.50
2022-10-19T10:59:49.838Z,11.40
2022-10-19T11:00:49.772Z,7.40
2022-10-19T11:01:49.965Z,7.80
2022-10-19T11:02:49.728Z,8.80
2022-10-19T11:03:49.644Z,11.40
2022-10-19T11:04:52.206Z,8.40
2022-10-19T11:05:49.693Z,7.70
2022-10-19T11:06:50.649Z,7.10
2022-10-19T11:07:49.653Z,7.70
2022-10-19T11:08:49.743Z,6.30
2022-10-19T11:09:49.652Z,9.20
2022-10-19T11:10:49.681Z,9.40
2022-10-19T11:11:49.552Z,5.10
2022-10-19T11:12:49.532Z,7.10
2022-10-19T11:13:49.545Z,10.20
2022-10-19T11:14:49.489Z,7.40
2022-10-19T11:15:49.500Z,9.10
2022-10-19T11:16:49.480Z,11.60
2022-10-19T11:17:49.497Z,5.70
2022-10-19T11:18:49.537Z,7.90
2022-10-19T11:19:49.497Z,6.00
2022-10-19T11:20:49.496Z,6.00
2022-10-19T11:21:49.477Z,5.70
2022-10-19T11:22:49.487Z,5.20
2022-10-19T11:23:49.376Z,3.00
2022-10-19T11:24:49.429Z,5.00
2022-10-19T11:25:49.384Z,6.10
2022-10-19T11:26:49.449Z,4.90
2022-10-19T11:27:49.417Z,7.30
2022-10-19T11:28:49.424Z,5.00
2022-10-19T11:29:49.594Z,6.80
2022-10-19T11:30:50.688Z,3.50
2022-10-19T11:31:50.362Z,7.00
2022-10-19T11:32:49.380Z,7.30
2022-10-19T11:33:49.815Z,5.10
2022-10-19T11:34:49.658Z,4.80
2022-10-19T11:35:49.246Z,7.00
2022-10-19T11:36:49.270Z,3.80
2022-10-19T11:38:00.355Z,3.60
2022-10-19T11:38:51.302Z,1.90
2022-10-19T11:39:49.227Z,3.50
2022-10-19T11:41:06.093Z,4.90
2022-10-19T11:41:51.294Z,3.20
2022-10-19T11:42:49.246Z,4.30
2022-10-19T11:43:49.143Z,3.90
2022-10-19T11:44:49.187Z,5.30
2022-10-19T11:45:49.502Z,6.60
2022-10-19T11:46:49.134Z,6.00
2022-10-19T11:47:49.102Z,7.50
2022-10-19T11:48:52.963Z,11.20
2022-10-19T11:49:50.116Z,6.60
2022-10-19T11:50:54.107Z,5.80
2022-10-19T11:51:51.099Z,5.70
2022-10-19T11:52:49.264Z,4.20
2022-10-19T11:53:49.083Z,5.60
2022-10-19T11:54:49.063Z,7.10
2022-10-19T11:55:49.057Z,5.00
2022-10-19T11:57:02.858Z,5.50
2022-10-19T11:57:50.986Z,6.90
2022-10-19T11:58:49.053Z,6.10
2022-10-19T11:59:50.398Z,7.00
2022-10-19T12:00:48.986Z,7.70
2022-10-19T12:01:49.001Z,4.80
2022-10-19T12:02:48.935Z,3.80
2022-10-19T12:03:48.902Z,3.80
2022-10-19T12:04:48.915Z,3.60
2022-10-19T12:05:49.378Z,5.00
2022-10-19T12:07:05.886Z,6.80
2022-10-19T12:07:50.107Z,3.80
2022-10-19T12:08:51.198Z,7.60
2022-10-19T12:09:48.854Z,7.10
2022-10-19T12:10:48.850Z,6.00
2022-10-19T12:11:49.922Z,7.30
2022-10-19T12:12:49.047Z,7.50
2022-10-19T12:13:48.793Z,5.60
2022-10-19T12:14:48.777Z,7.70
2022-10-19T12:15:48.951Z,6.70
2022-10-19T12:16:48.799Z,7.40
2022-10-19T12:17:48.803Z,6.30
2022-10-19T12:18:48.751Z,4.40
2022-10-19T12:19:48.732Z,6.10
2022-10-19T12:20:48.747Z,8.10
2022-10-19T12:21:48.760Z,4.60
2022-10-19T12:22:48.727Z,6.90
2022-10-19T12:23:48.719Z,9.50
2022-10-19T12:24:48.681Z,5.50
2022-10-19T12:25:48.673Z,5.30
2022-10-19T12:26:48.747Z,6.60
2022-10-19T12:27:48.684Z,8.40
2022-10-19T12:28:48.639Z,5.30
2022-10-19T12:29:48.635Z,6.00
2022-10-19T12:30:48.628Z,5.90
2022-10-19T12:31:48.627Z,8.70
2022-10-19T12:32:53.400Z,6.40
2022-10-19T12:33:50.652Z,7.50
2022-10-19T12:34:48.614Z,7.70
2022-10-19T12:35:48.556Z,6.60
2022-10-19T12:36:48.592Z,4.20
2022-10-19T12:37:48.649Z,8.40
2022-10-19T12:38:50.805Z,6.00
2022-10-19T12:39:48.524Z,6.50
2022-10-19T12:40:48.587Z,9.70
2022-10-19T12:41:48.475Z,10.20
2022-10-19T12:42:48.491Z,5.60
2022-10-19T12:43:48.483Z,9.70
2022-10-19T12:44:48.435Z,5.60
2022-10-19T12:45:48.428Z,5.20
2022-10-19T12:46:51.656Z,7.10
2022-10-19T12:47:50.571Z,4.90
2022-10-19T12:48:48.639Z,7.20
2022-10-19T12:49:48.405Z,6.60
2022-10-19T12:50:49.062Z,5.00
2022-10-19T12:51:48.372Z,16.20
2022-10-19T12:52:48.436Z,7.70